createdAt,value
2019-01-02T10:45:21.298Z,6.10
2019-01-02T10:47:51.736Z,6.20
2019-01-02T10:50:47.171Z,6.20
2019-01-02T10:53:19.779Z,6.20
2019-01-02T10:56:09.351Z,6.30
2019-01-02T10:58:55.845Z,6.40
2019-01-02T11:01:57.511Z,6.50
2019-01-02T11:04:46.758Z,6.60
2019-01-02T11:07:42.439Z,6.80
2019-01-02T11:10:27.958Z,7.00
2019-01-02T11:13:02.944Z,7.00
2019-01-02T11:15:35.422Z,7.10
2019-01-02T11:18:12.474Z,7.20
2019-01-02T11:21:14.284Z,7.10
2019-01-02T11:24:05.523Z,7.10
2019-01-02T11:26:52.956Z,7.00
2019-01-02T11:29:46.574Z,6.90
2019-01-02T11:32:22.411Z,6.80
2019-01-02T11:34:54.863Z,6.80
2019-01-02T11:37:38.256Z,6.80
2019-01-02T11:40:24.839Z,6.70
2019-01-02T11:43:17.378Z,6.40
2019-01-02T11:45:44.535Z,6.40
2019-01-02T11:48:11.525Z,6.40
2019-01-02T11:50:38.568Z,6.40
2019-01-02T11:53:06.003Z,6.40
2019-01-02T11:55:33.298Z,6.40
2019-01-02T11:58:00.637Z,6.40
2019-01-02T12:00:27.697Z,6.30
2019-01-02T12:02:55.014Z,6.30
2019-01-02T12:05:22.205Z,6.40
2019-01-02T12:07:49.398Z,6.40
2019-01-02T12:10:16.463Z,6.30
2019-01-02T12:12:43.494Z,6.30
2019-01-02T12:15:10.712Z,6.30
2019-01-02T12:17:37.874Z,6.30
2019-01-02T12:20:05.474Z,6.30
2019-01-02T12:22:32.936Z,6.40
2019-01-02T12:25:00.769Z,6.40
2019-01-02T12:27:27.990Z,6.50
2019-01-02T12:29:55.135Z,6.50
2019-01-02T12:32:22.349Z,6.70
2019-01-02T12:34:49.498Z,6.90
2019-01-02T12:37:16.650Z,7.00
2019-01-02T12:39:43.704Z,7.30
2019-01-02T12:42:10.700Z,7.30
2019-01-02T12:44:37.640Z,7.20
2019-01-02T12:47:04.747Z,6.90
2019-01-02T12:49:31.732Z,6.70
2019-01-02T12:51:59.048Z,6.80
2019-01-02T12:54:25.959Z,6.70
2019-01-02T12:56:53.066Z,6.70
2019-01-02T12:59:24.722Z,6.70
2019-01-02T13:02:17.628Z,6.80
2019-01-02T13:04:52.537Z,6.90
2019-01-02T13:07:44.454Z,7.00
2019-01-02T13:10:27.598Z,7.00
2019-01-02T13:13:11.027Z,6.90
2019-01-02T13:15:51.433Z,6.90
2019-01-02T13:18:50.273Z,6.90
2019-01-02T13:21:45.868Z,7.10
2019-01-02T13:24:22.370Z,7.20
2019-01-02T13:27:07.889Z,7.10
2019-01-02T13:29:43.972Z,7.20
2019-01-02T13:32:29.334Z,7.30
2019-01-02T13:35:14.880Z,7.40
2019-01-02T13:38:10.223Z,7.80
2019-01-02T13:40:55.186Z,7.80
2019-01-02T13:43:40.254Z,8.00
2019-01-02T13:46:32.915Z,8.20
2019-01-02T13:49:09.849Z,8.30
2019-01-02T13:51:38.561Z,8.20
2019-01-02T13:54:05.648Z,7.70
2019-01-02T13:56:34.028Z,7.40
2019-01-02T13:59:01.091Z,7.40
2019-01-02T14:01:28.108Z,7.20
2019-01-02T14:03:56.651Z,7.00
2019-01-02T14:06:27.157Z,6.80
2019-01-02T14:08:54.380Z,6.70
2019-01-02T14:11:21.468Z,6.60
2019-01-02T14:13:48.691Z,6.60
2019-01-02T14:16:15.632Z,6.60
2019-01-02T14:18:42.980Z,6.80
2019-01-02T14:21:10.250Z,7.00
2019-01-02T14:23:37.325Z,7.10
